This is the latest recevied weather packets stored in our database for station/object KCKV. If no packets are shown the sender has not sent any weather packets the latest 1 day(s).
| Time | Temp. | Humidity | Pressure | Rain* | Wind** | Luminosity | Snow |
|---|---|---|---|---|---|---|---|
| 1836274576 | 20.56° C | 77% | 1017.6 hPa | - | 3.58 m/s, 60° | - | - |
| 1836274428 | 20.56° C | 77% | 1017.6 hPa | - | 3.58 m/s, 60° | - | - |
| 1836273975 | 20.56° C | 77% | 1017.6 hPa | - | 3.58 m/s, 60° | - | - |
| 1778054005 | 11.67° C | 81% | 1006.8 hPa | - | 5.81 m/s, 350° | - | - |
| 1778053409 | 11.67° C | 81% | 1006.8 hPa | - | 5.81 m/s, 350° | - | - |
| 1778052807 | 11.67° C | 93% | 1007.8 hPa | - | 4.02 m/s, 360° | - | - |
| 1778052208 | 11.67° C | 93% | 1007.8 hPa | - | 4.02 m/s, 360° | - | - |
| 1778051608 | 11.67° C | 93% | 1007.8 hPa | - | 4.02 m/s, 360° | - | - |
| 1778051009 | 11.67° C | 93% | 1007.8 hPa | - | 4.02 m/s, 360° | - | - |
| 1778050404 | 13.89° C | 93% | 1007.1 hPa | - | 5.81 m/s, 330° | - | - |
| 1778049805 | 13.89° C | 93% | 1007.5 hPa | - | 5.81 m/s, 330° | - | - |
| 1778049213 | 13.89° C | 93% | 1007.5 hPa | - | 5.81 m/s, 330° | - | - |
| 1778048607 | 13.89° C | 93% | 1007.5 hPa | - | 5.81 m/s, 330° | - | - |
| 1778048006 | 13.89° C | 93% | 1007.8 hPa | - | 5.81 m/s, 330° | - | - |
| 1778047411 | 15° C | 87% | 1007.5 hPa | - | 6.71 m/s, 320° | - | - |
| 1778046808 | 15.56° C | 87% | 1007.5 hPa | - | 5.81 m/s, 340° | - | - |
| 1778046212 | 16.67° C | 93% | 1007.8 hPa | - | 8.05 m/s, 310° | - | - |
| 1778045605 | 17.78° C | 93% | 1007.1 hPa | - | 4.02 m/s, 280° | - | - |
| 1778045007 | 18.89° C | 88% | 1007.1 hPa | - | 5.36 m/s, 280° | - | - |
| 1778044406 | 20° C | 77% | 1007.1 hPa | - | 5.81 m/s, 190° | - | - |
| 1778043809 | 20° C | 77% | 1007.1 hPa | - | 5.81 m/s, 190° | - | - |
| 1778043206 | 18.89° C | 82% | 1006.4 hPa | - | 6.71 m/s, 190° | - | - |
| 1778042608 | 18.89° C | 82% | 1006.4 hPa | - | 6.71 m/s, 190° | - | - |
| 1778042008 | 18.89° C | 82% | 1007.1 hPa | - | 6.71 m/s, 190° | - | - |
| 1778041408 | 18.89° C | 82% | 1007.1 hPa | - | 6.71 m/s, 190° | - | - |
* Rain since midnight (hover to see other rain measurements)
** Current wind speed in m/s (hover to see current wind gust speed)